sensor_id;sensor_type;location;lat;lon;timestamp;P1;durP1;ratioP1;P2;durP2;ratioP2
61840;SDS011;47773;53.174;6.614;2023-04-25T00:00:50;30.30;;;3.75;;
61840;SDS011;47773;53.174;6.614;2023-04-25T00:03:17;23.40;;;4.28;;
61840;SDS011;47773;53.174;6.614;2023-04-25T00:05:43;22.48;;;4.18;;
61840;SDS011;47773;53.174;6.614;2023-04-25T00:08:10;32.03;;;4.55;;
61840;SDS011;47773;53.174;6.614;2023-04-25T00:10:36;26.17;;;4.75;;
61840;SDS011;47773;53.174;6.614;2023-04-25T00:13:01;21.45;;;4.07;;
61840;SDS011;47773;53.174;6.614;2023-04-25T00:15:27;20.63;;;3.70;;
61840;SDS011;47773;53.174;6.614;2023-04-25T00:17:55;26.90;;;4.25;;
61840;SDS011;47773;53.174;6.614;2023-04-25T00:20:21;27.42;;;4.05;;
61840;SDS011;47773;53.174;6.614;2023-04-25T00:22:48;31.85;;;4.57;;
61840;SDS011;47773;53.174;6.614;2023-04-25T00:25:14;18.98;;;3.67;;
61840;SDS011;47773;53.174;6.614;2023-04-25T00:27:40;25.30;;;3.58;;
61840;SDS011;47773;53.174;6.614;2023-04-25T00:30:07;23.55;;;4.25;;
61840;SDS011;47773;53.174;6.614;2023-04-25T00:32:33;28.00;;;3.65;;
61840;SDS011;47773;53.174;6.614;2023-04-25T00:34:59;30.40;;;5.05;;
61840;SDS011;47773;53.174;6.614;2023-04-25T00:37:24;25.98;;;3.53;;
61840;SDS011;47773;53.174;6.614;2023-04-25T00:39:50;29.08;;;3.25;;
61840;SDS011;47773;53.174;6.614;2023-04-25T00:42:18;20.92;;;3.22;;
61840;SDS011;47773;53.174;6.614;2023-04-25T00:44:44;20.35;;;2.97;;
61840;SDS011;47773;53.174;6.614;2023-04-25T00:47:10;18.90;;;3.00;;
61840;SDS011;47773;53.174;6.614;2023-04-25T00:49:36;18.75;;;2.65;;
61840;SDS011;47773;53.174;6.614;2023-04-25T00:52:02;17.92;;;3.10;;
61840;SDS011;47773;53.174;6.614;2023-04-25T00:54:27;17.35;;;2.53;;
61840;SDS011;47773;53.174;6.614;2023-04-25T00:56:53;22.48;;;3.25;;
61840;SDS011;47773;53.174;6.614;2023-04-25T00:59:19;17.27;;;2.60;;
61840;SDS011;47773;53.174;6.614;2023-04-25T01:01:45;31.48;;;3.17;;
61840;SDS011;47773;53.174;6.614;2023-04-25T01:04:11;17.30;;;3.13;;
61840;SDS011;47773;53.174;6.614;2023-04-25T01:06:38;11.48;;;2.30;;
61840;SDS011;47773;53.174;6.614;2023-04-25T01:09:04;20.13;;;2.95;;
61840;SDS011;47773;53.174;6.614;2023-04-25T01:11:30;19.73;;;2.80;;
61840;SDS011;47773;53.174;6.614;2023-04-25T01:13:56;15.05;;;2.47;;
61840;SDS011;47773;53.174;6.614;2023-04-25T01:16:22;16.73;;;2.97;;
61840;SDS011;47773;53.174;6.614;2023-04-25T01:18:49;14.32;;;3.25;;
61840;SDS011;47773;53.174;6.614;2023-04-25T01:21:16;16.35;;;2.35;;
61840;SDS011;47773;53.174;6.614;2023-04-25T01:23:42;16.05;;;2.50;;
61840;SDS011;47773;53.174;6.614;2023-04-25T01:26:08;18.50;;;2.50;;
61840;SDS011;47773;53.174;6.614;2023-04-25T01:28:36;15.40;;;2.30;;
61840;SDS011;47773;53.174;6.614;2023-04-25T01:31:02;18.00;;;2.28;;
61840;SDS011;47773;53.174;6.614;2023-04-25T01:33:28;19.55;;;2.67;;
61840;SDS011;47773;53.174;6.614;2023-04-25T01:35:54;18.60;;;2.53;;
61840;SDS011;47773;53.174;6.614;2023-04-25T01:38:20;17.02;;;2.40;;
61840;SDS011;47773;53.174;6.614;2023-04-25T01:40:46;22.45;;;2.72;;
61840;SDS011;47773;53.174;6.614;2023-04-25T01:43:12;15.18;;;2.30;;
61840;SDS011;47773;53.174;6.614;2023-04-25T01:45:39;11.68;;;2.10;;
61840;SDS011;47773;53.174;6.614;2023-04-25T01:48:07;17.73;;;2.92;;
61840;SDS011;47773;53.174;6.614;2023-04-25T01:50:33;10.30;;;1.90;;
61840;SDS011;47773;53.174;6.614;2023-04-25T01:52:59;16.80;;;2.35;;
61840;SDS011;47773;53.174;6.614;2023-04-25T01:55:26;14.63;;;2.50;;
61840;SDS011;47773;53.174;6.614;2023-04-25T01:57:52;16.65;;;2.13;;
61840;SDS011;47773;53.174;6.614;2023-04-25T02:00:18;13.55;;;1.88;;
61840;SDS011;47773;53.174;6.614;2023-04-25T02:02:44;16.30;;;2.47;;
61840;SDS011;47773;53.174;6.614;2023-04-25T02:05:09;21.65;;;2.95;;
61840;SDS011;47773;53.174;6.614;2023-04-25T02:07:35;19.38;;;2.83;;
61840;SDS011;47773;53.174;6.614;2023-04-25T02:10:01;18.23;;;2.15;;
61840;SDS011;47773;53.174;6.614;2023-04-25T02:12:27;20.33;;;2.40;;
61840;SDS011;47773;53.174;6.614;2023-04-25T02:14:53;17.63;;;2.78;;
61840;SDS011;47773;53.174;6.614;2023-04-25T02:17:18;21.08;;;2.58;;
61840;SDS011;47773;53.174;6.614;2023-04-25T02:19:44;16.67;;;2.47;;
61840;SDS011;47773;53.174;6.614;2023-04-25T02:22:10;21.08;;;3.15;;
61840;SDS011;47773;53.174;6.614;2023-04-25T02:24:36;16.58;;;2.30;;
61840;SDS011;47773;53.174;6.614;2023-04-25T02:27:02;17.80;;;3.35;;
61840;SDS011;47773;53.174;6.614;2023-04-25T02:29:28;21.80;;;2.50;;
61840;SDS011;47773;53.174;6.614;2023-04-25T02:31:55;16.45;;;2.47;;
61840;SDS011;47773;53.174;6.614;2023-04-25T02:34:21;26.70;;;2.38;;
61840;SDS011;47773;53.174;6.614;2023-04-25T02:36:48;12.23;;;2.13;;
61840;SDS011;47773;53.174;6.614;2023-04-25T02:39:14;27.05;;;2.90;;
61840;SDS011;47773;53.174;6.614;2023-04-25T02:41:40;21.58;;;3.13;;
61840;SDS011;47773;53.174;6.614;2023-04-25T02:44:05;17.27;;;2.60;;
61840;SDS011;47773;53.174;6.614;2023-04-25T02:46:31;14.43;;;1.77;;
61840;SDS011;47773;53.174;6.614;2023-04-25T02:48:56;16.95;;;2.65;;
61840;SDS011;47773;53.174;6.614;2023-04-25T02:51:22;16.80;;;2.35;;
61840;SDS011;47773;53.174;6.614;2023-04-25T02:53:48;16.70;;;2.70;;
61840;SDS011;47773;53.174;6.614;2023-04-25T02:56:13;17.23;;;1.90;;
61840;SDS011;47773;53.174;6.614;2023-04-25T02:58:39;20.25;;;2.13;;
61840;SDS011;47773;53.174;6.614;2023-04-25T03:01:05;14.48;;;1.65;;
61840;SDS011;47773;53.174;6.614;2023-04-25T03:03:30;16.05;;;2.30;;
61840;SDS011;47773;53.174;6.614;2023-04-25T03:05:56;13.75;;;2.22;;
61840;SDS011;47773;53.174;6.614;2023-04-25T03:08:22;20.23;;;2.42;;
61840;SDS011;47773;53.174;6.614;2023-04-25T03:10:47;16.42;;;2.05;;
61840;SDS011;47773;53.174;6.614;2023-04-25T03:13:15;18.65;;;2.53;;
61840;SDS011;47773;53.174;6.614;2023-04-25T03:15:40;13.80;;;2.15;;
61840;SDS011;47773;53.174;6.614;2023-04-25T03:18:06;14.90;;;1.85;;
61840;SDS011;47773;53.174;6.614;2023-04-25T03:20:32;8.80;;;1.73;;
61840;SDS011;47773;53.174;6.614;2023-04-25T03:22:57;9.95;;;1.90;;
61840;SDS011;47773;53.174;6.614;2023-04-25T03:25:23;13.70;;;2.00;;
61840;SDS011;47773;53.174;6.614;2023-04-25T03:27:49;14.98;;;2.10;;
61840;SDS011;47773;53.174;6.614;2023-04-25T03:30:14;15.10;;;2.00;;
61840;SDS011;47773;53.174;6.614;2023-04-25T03:32:40;16.05;;;1.88;;
61840;SDS011;47773;53.174;6.614;2023-04-25T03:35:06;15.43;;;2.15;;
61840;SDS011;47773;53.174;6.614;2023-04-25T03:37:32;16.23;;;2.00;;
61840;SDS011;47773;53.174;6.614;2023-04-25T03:39:57;16.27;;;2.00;;
61840;SDS011;47773;53.174;6.614;2023-04-25T03:42:23;22.13;;;2.08;;
61840;SDS011;47773;53.174;6.614;2023-04-25T03:44:49;14.00;;;2.30;;
61840;SDS011;47773;53.174;6.614;2023-04-25T03:47:16;11.65;;;1.65;;
61840;SDS011;47773;53.174;6.614;2023-04-25T03:49:42;22.45;;;2.55;;
61840;SDS011;47773;53.174;6.614;2023-04-25T03:52:07;12.27;;;2.22;;
61840;SDS011;47773;53.174;6.614;2023-04-25T03:54:33;11.95;;;2.05;;
61840;SDS011;47773;53.174;6.614;2023-04-25T03:56:58;15.88;;;1.45;;
61840;SDS011;47773;53.174;6.614;2023-04-25T03:59:24;12.20;;;1.58;;
61840;SDS011;47773;53.174;6.614;2023-04-25T04:01:51;9.32;;;1.40;;
61840;SDS011;47773;53.174;6.614;2023-04-25T04:04:17;17.42;;;1.75;;
61840;SDS011;47773;53.174;6.614;2023-04-25T04:06:43;17.13;;;2.10;;
61840;SDS011;47773;53.174;6.614;2023-04-25T04:09:09;18.00;;;2.15;;
61840;SDS011;47773;53.174;6.614;2023-04-25T04:11:36;12.88;;;2.20;;
61840;SDS011;47773;53.174;6.614;2023-04-25T04:14:04;13.35;;;1.85;;
61840;SDS011;47773;53.174;6.614;2023-04-25T04:16:31;14.52;;;1.98;;
61840;SDS011;47773;53.174;6.614;2023-04-25T04:18:56;13.75;;;2.28;;
61840;SDS011;47773;53.174;6.614;2023-04-25T04:21:22;14.82;;;1.83;;
61840;SDS011;47773;53.174;6.614;2023-04-25T04:23:48;11.82;;;1.73;;
61840;SDS011;47773;53.174;6.614;2023-04-25T04:26:14;11.93;;;1.77;;
61840;SDS011;47773;53.174;6.614;2023-04-25T04:28:41;17.05;;;2.53;;
61840;SDS011;47773;53.174;6.614;2023-04-25T04:31:09;12.48;;;1.90;;
61840;SDS011;47773;53.174;6.614;2023-04-25T04:33:35;20.13;;;2.25;;
61840;SDS011;47773;53.174;6.614;2023-04-25T04:36:02;18.85;;;1.92;;
61840;SDS011;47773;53.174;6.614;2023-04-25T04:38:28;9.63;;;1.77;;
61840;SDS011;47773;53.174;6.614;2023-04-25T04:40:54;9.02;;;1.67;;
61840;SDS011;47773;53.174;6.614;2023-04-25T04:43:20;10.77;;;1.98;;
61840;SDS011;47773;53.174;6.614;2023-04-25T04:45:47;16.05;;;1.95;;
61840;SDS011;47773;53.174;6.614;2023-04-25T04:48:15;13.63;;;1.80;;
61840;SDS011;47773;53.174;6.614;2023-04-25T04:50:42;11.10;;;1.55;;
61840;SDS011;47773;53.174;6.614;2023-04-25T04:53:10;14.57;;;1.73;;
61840;SDS011;47773;53.174;6.614;2023-04-25T04:55:36;12.10;;;2.00;;
61840;SDS011;47773;53.174;6.614;2023-04-25T04:58:01;13.68;;;1.75;;
61840;SDS011;47773;53.174;6.614;2023-04-25T05:00:27;11.48;;;1.90;;
61840;SDS011;47773;53.174;6.614;2023-04-25T05:02:54;12.25;;;1.73;;
61840;SDS011;47773;53.174;6.614;2023-04-25T05:05:20;19.83;;;2.10;;
61840;SDS011;47773;53.174;6.614;2023-04-25T05:07:46;14.32;;;2.00;;
61840;SDS011;47773;53.174;6.614;2023-04-25T05:10:11;15.10;;;1.95;;
61840;SDS011;47773;53.174;6.614;2023-04-25T05:12:37;11.30;;;2.22;;
61840;SDS011;47773;53.174;6.614;2023-04-25T05:15:03;10.25;;;1.40;;
61840;SDS011;47773;53.174;6.614;2023-04-25T05:17:29;11.48;;;1.60;;
61840;SDS011;47773;53.174;6.614;2023-04-25T05:19:54;8.63;;;1.23;;
61840;SDS011;47773;53.174;6.614;2023-04-25T05:22:20;8.73;;;1.52;;
61840;SDS011;47773;53.174;6.614;2023-04-25T05:24:46;10.30;;;1.75;;
61840;SDS011;47773;53.174;6.614;2023-04-25T05:27:13;18.45;;;1.38;;
61840;SDS011;47773;53.174;6.614;2023-04-25T05:29:38;20.45;;;1.77;;
61840;SDS011;47773;53.174;6.614;2023-04-25T05:32:04;10.25;;;1.65;;
61840;SDS011;47773;53.174;6.614;2023-04-25T05:34:30;11.75;;;1.25;;
61840;SDS011;47773;53.174;6.614;2023-04-25T05:36:56;12.80;;;2.20;;
61840;SDS011;47773;53.174;6.614;2023-04-25T05:39:21;12.85;;;2.28;;
61840;SDS011;47773;53.174;6.614;2023-04-25T05:41:47;9.43;;;1.85;;
61840;SDS011;47773;53.174;6.614;2023-04-25T05:44:13;8.27;;;1.10;;
61840;SDS011;47773;53.174;6.614;2023-04-25T05:46:40;14.68;;;1.63;;
61840;SDS011;47773;53.174;6.614;2023-04-25T05:49:06;6.45;;;1.58;;
61840;SDS011;47773;53.174;6.614;2023-04-25T05:51:32;9.27;;;1.75;;
61840;SDS011;47773;53.174;6.614;2023-04-25T05:53:57;9.15;;;1.30;;
61840;SDS011;47773;53.174;6.614;2023-04-25T05:56:23;15.52;;;1.33;;
61840;SDS011;47773;53.174;6.614;2023-04-25T05:58:49;7.10;;;1.38;;
61840;SDS011;47773;53.174;6.614;2023-04-25T06:01:14;8.05;;;1.35;;
61840;SDS011;47773;53.174;6.614;2023-04-25T06:03:40;10.45;;;2.38;;
61840;SDS011;47773;53.174;6.614;2023-04-25T06:06:08;15.45;;;2.33;;
61840;SDS011;47773;53.174;6.614;2023-04-25T06:08:34;11.68;;;1.73;;
61840;SDS011;47773;53.174;6.614;2023-04-25T06:11:00;6.05;;;1.27;;
61840;SDS011;47773;53.174;6.614;2023-04-25T06:13:25;13.07;;;1.60;;
61840;SDS011;47773;53.174;6.614;2023-04-25T06:15:51;9.35;;;1.38;;
61840;SDS011;47773;53.174;6.614;2023-04-25T06:18:17;11.13;;;1.15;;
61840;SDS011;47773;53.174;6.614;2023-04-25T06:20:42;8.48;;;1.15;;
61840;SDS011;47773;53.174;6.614;2023-04-25T06:23:08;7.57;;;1.40;;
61840;SDS011;47773;53.174;6.614;2023-04-25T06:25:34;9.10;;;1.80;;
61840;SDS011;47773;53.174;6.614;2023-04-25T06:27:59;10.60;;;1.42;;
61840;SDS011;47773;53.174;6.614;2023-04-25T06:30:25;10.48;;;1.60;;
61840;SDS011;47773;53.174;6.614;2023-04-25T06:32:51;6.32;;;1.30;;
61840;SDS011;47773;53.174;6.614;2023-04-25T06:35:18;14.07;;;2.28;;
61840;SDS011;47773;53.174;6.614;2023-04-25T06:37:44;14.65;;;1.98;;
61840;SDS011;47773;53.174;6.614;2023-04-25T06:40:09;10.43;;;1.40;;
61840;SDS011;47773;53.174;6.614;2023-04-25T06:42:36;11.95;;;1.45;;
61840;SDS011;47773;53.174;6.614;2023-04-25T06:45:02;8.77;;;1.50;;
61840;SDS011;47773;53.174;6.614;2023-04-25T06:47:28;8.63;;;1.20;;
61840;SDS011;47773;53.174;6.614;2023-04-25T06:49:54;13.90;;;1.85;;
61840;SDS011;47773;53.174;6.614;2023-04-25T06:52:20;9.30;;;1.33;;
61840;SDS011;47773;53.174;6.614;2023-04-25T06:54:46;10.73;;;1.73;;
61840;SDS011;47773;53.174;6.614;2023-04-25T06:57:12;9.95;;;1.77;;
61840;SDS011;47773;53.174;6.614;2023-04-25T06:59:37;13.43;;;1.85;;
61840;SDS011;47773;53.174;6.614;2023-04-25T07:02:03;17.73;;;1.95;;
61840;SDS011;47773;53.174;6.614;2023-04-25T07:04:29;10.48;;;1.27;;
61840;SDS011;47773;53.174;6.614;2023-04-25T07:06:55;13.20;;;1.45;;
61840;SDS011;47773;53.174;6.614;2023-04-25T07:09:21;8.85;;;1.45;;
61840;SDS011;47773;53.174;6.614;2023-04-25T07:11:47;9.50;;;1.10;;
61840;SDS011;47773;53.174;6.614;2023-04-25T07:14:13;12.20;;;1.05;;
61840;SDS011;47773;53.174;6.614;2023-04-25T07:16:38;6.10;;;0.88;;
61840;SDS011;47773;53.174;6.614;2023-04-25T07:19:04;7.80;;;1.23;;
61840;SDS011;47773;53.174;6.614;2023-04-25T07:21:30;8.70;;;1.13;;
61840;SDS011;47773;53.174;6.614;2023-04-25T07:23:56;9.48;;;1.30;;
61840;SDS011;47773;53.174;6.614;2023-04-25T07:26:22;10.88;;;1.55;;
61840;SDS011;47773;53.174;6.614;2023-04-25T07:28:48;9.85;;;1.00;;
61840;SDS011;47773;53.174;6.614;2023-04-25T07:31:16;11.05;;;1.55;;
61840;SDS011;47773;53.174;6.614;2023-04-25T07:33:43;8.98;;;1.58;;
61840;SDS011;47773;53.174;6.614;2023-04-25T07:36:10;5.80;;;0.90;;
61840;SDS011;47773;53.174;6.614;2023-04-25T07:38:37;4.25;;;1.17;;
61840;SDS011;47773;53.174;6.614;2023-04-25T07:41:03;12.07;;;1.20;;
61840;SDS011;47773;53.174;6.614;2023-04-25T07:43:29;9.77;;;1.05;;
61840;SDS011;47773;53.174;6.614;2023-04-25T07:45:55;11.40;;;1.30;;
61840;SDS011;47773;53.174;6.614;2023-04-25T07:48:22;8.30;;;1.20;;
61840;SDS011;47773;53.174;6.614;2023-04-25T07:50:47;11.57;;;0.90;;
61840;SDS011;47773;53.174;6.614;2023-04-25T07:53:13;8.35;;;1.20;;
61840;SDS011;47773;53.174;6.614;2023-04-25T07:55:39;8.27;;;1.15;;
61840;SDS011;47773;53.174;6.614;2023-04-25T07:58:07;13.65;;;1.10;;
61840;SDS011;47773;53.174;6.614;2023-04-25T08:00:34;5.88;;;0.73;;
61840;SDS011;47773;53.174;6.614;2023-04-25T08:03:00;5.57;;;0.65;;
61840;SDS011;47773;53.174;6.614;2023-04-25T08:05:25;4.07;;;0.70;;
61840;SDS011;47773;53.174;6.614;2023-04-25T08:07:51;7.55;;;1.10;;
61840;SDS011;47773;53.174;6.614;2023-04-25T08:10:17;8.10;;;1.08;;
61840;SDS011;47773;53.174;6.614;2023-04-25T08:12:42;4.97;;;0.80;;
61840;SDS011;47773;53.174;6.614;2023-04-25T08:15:08;7.05;;;0.88;;
61840;SDS011;47773;53.174;6.614;2023-04-25T08:17:34;2.90;;;0.77;;
61840;SDS011;47773;53.174;6.614;2023-04-25T08:20:00;5.00;;;0.63;;
61840;SDS011;47773;53.174;6.614;2023-04-25T08:22:26;3.83;;;0.43;;
61840;SDS011;47773;53.174;6.614;2023-04-25T08:24:53;5.07;;;0.75;;
61840;SDS011;47773;53.174;6.614;2023-04-25T08:27:19;4.38;;;0.75;;
61840;SDS011;47773;53.174;6.614;2023-04-25T08:29:46;4.00;;;0.50;;
61840;SDS011;47773;53.174;6.614;2023-04-25T08:32:12;8.82;;;1.02;;
61840;SDS011;47773;53.174;6.614;2023-04-25T08:34:39;7.65;;;0.68;;
61840;SDS011;47773;53.174;6.614;2023-04-25T08:37:07;4.72;;;0.50;;
61840;SDS011;47773;53.174;6.614;2023-04-25T08:39:34;2.58;;;0.73;;
61840;SDS011;47773;53.174;6.614;2023-04-25T08:42:05;4.25;;;0.60;;
61840;SDS011;47773;53.174;6.614;2023-04-25T08:44:35;6.35;;;0.65;;
61840;SDS011;47773;53.174;6.614;2023-04-25T08:47:02;3.92;;;0.63;;
61840;SDS011;47773;53.174;6.614;2023-04-25T08:49:30;6.22;;;0.63;;
61840;SDS011;47773;53.174;6.614;2023-04-25T08:52:02;3.70;;;0.80;;
61840;SDS011;47773;53.174;6.614;2023-04-25T08:54:31;3.63;;;0.63;;
61840;SDS011;47773;53.174;6.614;2023-04-25T08:56:57;3.28;;;0.77;;
61840;SDS011;47773;53.174;6.614;2023-04-25T08:59:27;3.67;;;0.77;;
61840;SDS011;47773;53.174;6.614;2023-04-25T09:01:53;4.00;;;0.70;;
61840;SDS011;47773;53.174;6.614;2023-04-25T09:04:20;4.20;;;0.80;;
61840;SDS011;47773;53.174;6.614;2023-04-25T09:06:47;4.82;;;0.68;;
61840;SDS011;47773;53.174;6.614;2023-04-25T09:09:13;8.77;;;1.00;;
61840;SDS011;47773;53.174;6.614;2023-04-25T09:11:39;6.68;;;1.00;;
61840;SDS011;47773;53.174;6.614;2023-04-25T09:19:23;3.67;;;0.90;;
61840;SDS011;47773;53.174;6.614;2023-04-25T09:21:50;6.05;;;0.93;;
61840;SDS011;47773;53.174;6.614;2023-04-25T09:27:02;8.75;;;1.10;;
61840;SDS011;47773;53.174;6.614;2023-04-25T09:29:35;6.40;;;0.98;;
61840;SDS011;47773;53.174;6.614;2023-04-25T09:37:48;7.57;;;1.23;;
61840;SDS011;47773;53.174;6.614;2023-04-25T09:40:06;5.38;;;0.80;;
61840;SDS011;47773;53.174;6.614;2023-04-25T09:42:33;9.65;;;1.23;;
61840;SDS011;47773;53.174;6.614;2023-04-25T09:45:00;7.95;;;1.17;;
61840;SDS011;47773;53.174;6.614;2023-04-25T09:47:29;11.68;;;1.42;;
61840;SDS011;47773;53.174;6.614;2023-04-25T09:49:55;5.53;;;0.93;;
61840;SDS011;47773;53.174;6.614;2023-04-25T09:52:21;8.88;;;1.00;;
61840;SDS011;47773;53.174;6.614;2023-04-25T09:54:48;4.78;;;0.80;;
61840;SDS011;47773;53.174;6.614;2023-04-25T09:57:16;5.25;;;0.80;;
61840;SDS011;47773;53.174;6.614;2023-04-25T09:59:47;9.60;;;1.30;;
61840;SDS011;47773;53.174;6.614;2023-04-25T10:02:15;12.40;;;1.15;;
61840;SDS011;47773;53.174;6.614;2023-04-25T10:04:50;7.05;;;1.00;;
61840;SDS011;47773;53.174;6.614;2023-04-25T10:07:20;9.23;;;1.30;;
61840;SDS011;47773;53.174;6.614;2023-04-25T10:09:48;8.65;;;1.20;;
61840;SDS011;47773;53.174;6.614;2023-04-25T10:12:17;12.57;;;1.67;;
61840;SDS011;47773;53.174;6.614;2023-04-25T10:14:43;10.20;;;1.20;;
61840;SDS011;47773;53.174;6.614;2023-04-25T10:17:11;9.55;;;1.63;;
61840;SDS011;47773;53.174;6.614;2023-04-25T10:19:36;10.13;;;1.83;;
61840;SDS011;47773;53.174;6.614;2023-04-25T10:22:11;7.65;;;1.00;;
61840;SDS011;47773;53.174;6.614;2023-04-25T10:24:57;9.30;;;1.02;;
61840;SDS011;47773;53.174;6.614;2023-04-25T10:27:24;15.77;;;1.85;;
61840;SDS011;47773;53.174;6.614;2023-04-25T10:30:00;7.13;;;1.20;;
61840;SDS011;47773;53.174;6.614;2023-04-25T10:32:31;7.13;;;1.50;;
61840;SDS011;47773;53.174;6.614;2023-04-25T10:38:31;7.20;;;1.48;;
61840;SDS011;47773;53.174;6.614;2023-04-25T10:40:39;10.65;;;1.13;;
61840;SDS011;47773;53.174;6.614;2023-04-25T10:45:55;17.17;;;1.60;;
61840;SDS011;47773;53.174;6.614;2023-04-25T10:48:31;14.05;;;1.48;;
61840;SDS011;47773;53.174;6.614;2023-04-25T10:51:09;8.75;;;1.25;;
61840;SDS011;47773;53.174;6.614;2023-04-25T10:53:46;12.98;;;1.10;;
61840;SDS011;47773;53.174;6.614;2023-04-25T10:56:22;5.68;;;1.25;;
61840;SDS011;47773;53.174;6.614;2023-04-25T10:58:50;7.68;;;1.00;;
61840;SDS011;47773;53.174;6.614;2023-04-25T11:01:20;6.05;;;1.02;;
61840;SDS011;47773;53.174;6.614;2023-04-25T11:03:46;7.15;;;1.25;;
61840;SDS011;47773;53.174;6.614;2023-04-25T11:09:00;4.82;;;0.93;;
61840;SDS011;47773;53.174;6.614;2023-04-25T11:11:27;5.18;;;1.10;;
61840;SDS011;47773;53.174;6.614;2023-04-25T11:13:54;7.93;;;1.13;;
61840;SDS011;47773;53.174;6.614;2023-04-25T11:16:19;13.35;;;1.30;;
61840;SDS011;47773;53.174;6.614;2023-04-25T11:18:48;6.05;;;0.80;;
61840;SDS011;47773;53.174;6.614;2023-04-25T11:21:14;7.82;;;1.10;;
61840;SDS011;47773;53.174;6.614;2023-04-25T11:23:40;5.30;;;0.77;;
61840;SDS011;47773;53.174;6.614;2023-04-25T11:26:10;8.60;;;1.25;;
61840;SDS011;47773;53.174;6.614;2023-04-25T11:28:36;5.60;;;0.93;;
61840;SDS011;47773;53.174;6.614;2023-04-25T11:31:02;6.05;;;1.65;;
61840;SDS011;47773;53.174;6.614;2023-04-25T11:33:29;3.08;;;0.80;;
61840;SDS011;47773;53.174;6.614;2023-04-25T11:35:55;15.18;;;1.75;;
61840;SDS011;47773;53.174;6.614;2023-04-25T11:38:24;12.48;;;1.40;;
61840;SDS011;47773;53.174;6.614;2023-04-25T11:40:51;11.88;;;1.30;;
61840;SDS011;47773;53.174;6.614;2023-04-25T11:43:19;4.80;;;0.68;;
61840;SDS011;47773;53.174;6.614;2023-04-25T11:45:48;11.02;;;1.08;;
61840;SDS011;47773;53.174;6.614;2023-04-25T11:48:16;6.10;;;1.00;;
61840;SDS011;47773;53.174;6.614;2023-04-25T11:50:42;8.27;;;0.95;;
61840;SDS011;47773;53.174;6.614;2023-04-25T11:53:08;10.10;;;1.50;;
61840;SDS011;47773;53.174;6.614;2023-04-25T11:55:34;4.38;;;1.02;;
61840;SDS011;47773;53.174;6.614;2023-04-25T11:58:01;10.18;;;1.20;;
61840;SDS011;47773;53.174;6.614;2023-04-25T12:00:27;12.07;;;1.05;;
61840;SDS011;47773;53.174;6.614;2023-04-25T12:02:53;4.55;;;0.65;;
61840;SDS011;47773;53.174;6.614;2023-04-25T12:05:21;7.22;;;0.80;;
61840;SDS011;47773;53.174;6.614;2023-04-25T12:07:49;9.15;;;0.95;;
61840;SDS011;47773;53.174;6.614;2023-04-25T12:10:15;4.80;;;0.90;;
61840;SDS011;47773;53.174;6.614;2023-04-25T12:12:43;11.35;;;1.30;;
61840;SDS011;47773;53.174;6.614;2023-04-25T12:15:11;8.23;;;1.10;;
61840;SDS011;47773;53.174;6.614;2023-04-25T12:17:40;6.22;;;1.02;;
61840;SDS011;47773;53.174;6.614;2023-04-25T12:20:10;9.50;;;1.33;;
61840;SDS011;47773;53.174;6.614;2023-04-25T12:22:42;10.25;;;1.20;;
61840;SDS011;47773;53.174;6.614;2023-04-25T12:25:12;8.70;;;1.20;;
61840;SDS011;47773;53.174;6.614;2023-04-25T12:27:39;10.65;;;1.27;;
61840;SDS011;47773;53.174;6.614;2023-04-25T12:30:09;10.55;;;1.20;;
61840;SDS011;47773;53.174;6.614;2023-04-25T12:32:36;10.48;;;1.60;;
61840;SDS011;47773;53.174;6.614;2023-04-25T12:35:03;8.07;;;2.33;;
61840;SDS011;47773;53.174;6.614;2023-04-25T12:37:30;5.82;;;1.30;;
61840;SDS011;47773;53.174;6.614;2023-04-25T12:39:55;8.80;;;1.27;;
61840;SDS011;47773;53.174;6.614;2023-04-25T12:42:21;8.75;;;1.10;;
61840;SDS011;47773;53.174;6.614;2023-04-25T12:44:47;7.57;;;0.98;;
61840;SDS011;47773;53.174;6.614;2023-04-25T12:47:12;11.57;;;1.25;;
61840;SDS011;47773;53.174;6.614;2023-04-25T12:49:39;11.27;;;1.30;;
61840;SDS011;47773;53.174;6.614;2023-04-25T12:52:04;10.02;;;1.08;;
61840;SDS011;47773;53.174;6.614;2023-04-25T12:54:30;5.25;;;0.90;;
61840;SDS011;47773;53.174;6.614;2023-04-25T12:56:56;7.15;;;0.98;;
61840;SDS011;47773;53.174;6.614;2023-04-25T12:59:22;7.82;;;1.13;;
61840;SDS011;47773;53.174;6.614;2023-04-25T13:01:48;14.73;;;1.30;;
61840;SDS011;47773;53.174;6.614;2023-04-25T13:04:14;5.10;;;0.80;;
61840;SDS011;47773;53.174;6.614;2023-04-25T13:06:40;7.22;;;1.00;;
61840;SDS011;47773;53.174;6.614;2023-04-25T13:09:06;9.68;;;1.15;;
61840;SDS011;47773;53.174;6.614;2023-04-25T13:11:32;7.18;;;0.88;;
61840;SDS011;47773;53.174;6.614;2023-04-25T13:13:57;8.18;;;0.73;;
61840;SDS011;47773;53.174;6.614;2023-04-25T13:16:23;5.57;;;1.00;;
61840;SDS011;47773;53.174;6.614;2023-04-25T13:18:49;9.95;;;1.20;;
61840;SDS011;47773;53.174;6.614;2023-04-25T13:21:15;14.02;;;1.95;;
61840;SDS011;47773;53.174;6.614;2023-04-25T13:23:40;7.35;;;1.45;;
61840;SDS011;47773;53.174;6.614;2023-04-25T13:26:07;7.30;;;1.10;;
61840;SDS011;47773;53.174;6.614;2023-04-25T13:28:33;4.28;;;1.02;;
61840;SDS011;47773;53.174;6.614;2023-04-25T13:30:59;9.23;;;1.20;;
61840;SDS011;47773;53.174;6.614;2023-04-25T13:33:24;4.35;;;0.82;;
61840;SDS011;47773;53.174;6.614;2023-04-25T13:35:50;11.07;;;1.80;;
61840;SDS011;47773;53.174;6.614;2023-04-25T13:38:22;8.23;;;1.20;;
61840;SDS011;47773;53.174;6.614;2023-04-25T13:40:48;7.82;;;1.25;;
61840;SDS011;47773;53.174;6.614;2023-04-25T13:43:15;6.43;;;1.15;;
61840;SDS011;47773;53.174;6.614;2023-04-25T13:45:41;9.80;;;1.10;;
61840;SDS011;47773;53.174;6.614;2023-04-25T13:48:07;8.13;;;0.95;;
61840;SDS011;47773;53.174;6.614;2023-04-25T13:50:32;11.48;;;1.10;;
61840;SDS011;47773;53.174;6.614;2023-04-25T13:52:58;9.73;;;1.25;;
61840;SDS011;47773;53.174;6.614;2023-04-25T13:55:24;6.93;;;1.27;;
61840;SDS011;47773;53.174;6.614;2023-04-25T13:57:49;6.70;;;1.10;;
61840;SDS011;47773;53.174;6.614;2023-04-25T14:00:15;7.55;;;0.82;;
61840;SDS011;47773;53.174;6.614;2023-04-25T14:02:41;7.40;;;0.70;;
61840;SDS011;47773;53.174;6.614;2023-04-25T14:05:07;5.82;;;0.88;;
61840;SDS011;47773;53.174;6.614;2023-04-25T14:07:34;5.50;;;0.80;;
61840;SDS011;47773;53.174;6.614;2023-04-25T14:10:03;6.32;;;1.00;;
61840;SDS011;47773;53.174;6.614;2023-04-25T14:12:30;10.23;;;1.13;;
61840;SDS011;47773;53.174;6.614;2023-04-25T14:14:56;5.95;;;0.80;;
61840;SDS011;47773;53.174;6.614;2023-04-25T14:17:22;5.00;;;1.23;;
61840;SDS011;47773;53.174;6.614;2023-04-25T14:19:47;8.02;;;1.27;;
61840;SDS011;47773;53.174;6.614;2023-04-25T14:22:14;10.55;;;1.10;;
61840;SDS011;47773;53.174;6.614;2023-04-25T14:24:40;8.68;;;1.50;;
61840;SDS011;47773;53.174;6.614;2023-04-25T14:27:06;9.50;;;1.45;;
61840;SDS011;47773;53.174;6.614;2023-04-25T14:29:32;7.15;;;1.30;;
61840;SDS011;47773;53.174;6.614;2023-04-25T14:31:57;7.15;;;1.23;;
61840;SDS011;47773;53.174;6.614;2023-04-25T14:34:24;7.13;;;1.30;;
61840;SDS011;47773;53.174;6.614;2023-04-25T14:36:50;9.02;;;1.05;;
61840;SDS011;47773;53.174;6.614;2023-04-25T14:39:16;7.38;;;0.90;;
61840;SDS011;47773;53.174;6.614;2023-04-25T14:41:42;4.30;;;0.90;;
61840;SDS011;47773;53.174;6.614;2023-04-25T14:44:08;5.75;;;1.05;;
61840;SDS011;47773;53.174;6.614;2023-04-25T14:46:34;7.63;;;0.85;;
61840;SDS011;47773;53.174;6.614;2023-04-25T14:49:00;6.05;;;0.95;;
61840;SDS011;47773;53.174;6.614;2023-04-25T14:51:27;9.63;;;1.30;;
61840;SDS011;47773;53.174;6.614;2023-04-25T14:53:52;8.70;;;1.08;;
61840;SDS011;47773;53.174;6.614;2023-04-25T14:56:18;10.73;;;1.30;;
61840;SDS011;47773;53.174;6.614;2023-04-25T14:58:44;9.13;;;1.63;;